sensor_id;sensor_type;location;lat;lon;timestamp;P1;durP1;ratioP1;P2;durP2;ratioP2
20000;SDS011;10161;41.188;-8.642;2023-05-19T00:01:26;7.00;;;3.70;;
20000;SDS011;10161;41.188;-8.642;2023-05-19T00:03:55;7.50;;;3.87;;
20000;SDS011;10161;41.188;-8.642;2023-05-19T00:06:25;6.07;;;3.87;;
20000;SDS011;10161;41.188;-8.642;2023-05-19T00:08:55;6.77;;;4.10;;
20000;SDS011;10161;41.188;-8.642;2023-05-19T00:11:23;6.07;;;4.47;;
20000;SDS011;10161;41.188;-8.642;2023-05-19T00:13:53;6.03;;;4.53;;
20000;SDS011;10161;41.188;-8.642;2023-05-19T00:16:21;5.23;;;4.50;;
20000;SDS011;10161;41.188;-8.642;2023-05-19T00:18:50;7.20;;;5.37;;
20000;SDS011;10161;41.188;-8.642;2023-05-19T00:21:19;6.10;;;4.70;;
20000;SDS011;10161;41.188;-8.642;2023-05-19T00:23:46;5.93;;;3.80;;
20000;SDS011;10161;41.188;-8.642;2023-05-19T00:26:14;5.60;;;4.00;;
20000;SDS011;10161;41.188;-8.642;2023-05-19T00:28:41;5.97;;;4.00;;
20000;SDS011;10161;41.188;-8.642;2023-05-19T00:31:09;4.83;;;3.80;;
20000;SDS011;10161;41.188;-8.642;2023-05-19T00:33:36;7.33;;;3.60;;
20000;SDS011;10161;41.188;-8.642;2023-05-19T00:36:05;3.70;;;3.27;;
20000;SDS011;10161;41.188;-8.642;2023-05-19T00:38:33;4.90;;;3.23;;
20000;SDS011;10161;41.188;-8.642;2023-05-19T00:41:02;3.80;;;3.20;;
20000;SDS011;10161;41.188;-8.642;2023-05-19T00:43:30;4.43;;;3.10;;
20000;SDS011;10161;41.188;-8.642;2023-05-19T00:45:59;7.10;;;3.10;;
20000;SDS011;10161;41.188;-8.642;2023-05-19T00:48:29;5.27;;;3.10;;
20000;SDS011;10161;41.188;-8.642;2023-05-19T00:50:56;4.43;;;3.03;;
20000;SDS011;10161;41.188;-8.642;2023-05-19T00:53:31;2.93;;;2.63;;
20000;SDS011;10161;41.188;-8.642;2023-05-19T00:55:59;2.80;;;2.53;;
20000;SDS011;10161;41.188;-8.642;2023-05-19T00:58:27;3.50;;;2.53;;
20000;SDS011;10161;41.188;-8.642;2023-05-19T01:00:55;3.53;;;2.50;;
20000;SDS011;10161;41.188;-8.642;2023-05-19T01:03:29;3.73;;;2.10;;
20000;SDS011;10161;41.188;-8.642;2023-05-19T01:05:58;4.73;;;3.00;;
20000;SDS011;10161;41.188;-8.642;2023-05-19T01:08:30;2.60;;;2.40;;
20000;SDS011;10161;41.188;-8.642;2023-05-19T01:10:57;3.27;;;2.40;;
20000;SDS011;10161;41.188;-8.642;2023-05-19T01:13:24;2.23;;;2.03;;
20000;SDS011;10161;41.188;-8.642;2023-05-19T01:15:56;3.60;;;2.77;;
20000;SDS011;10161;41.188;-8.642;2023-05-19T01:18:30;4.53;;;2.70;;
20000;SDS011;10161;41.188;-8.642;2023-05-19T01:21:05;2.33;;;2.13;;
20000;SDS011;10161;41.188;-8.642;2023-05-19T01:23:42;4.47;;;2.60;;
20000;SDS011;10161;41.188;-8.642;2023-05-19T01:29:05;3.37;;;2.40;;
20000;SDS011;10161;41.188;-8.642;2023-05-19T01:31:41;2.93;;;2.60;;
20000;SDS011;10161;41.188;-8.642;2023-05-19T01:34:12;3.17;;;2.50;;
20000;SDS011;10161;41.188;-8.642;2023-05-19T01:36:40;3.20;;;2.57;;
20000;SDS011;10161;41.188;-8.642;2023-05-19T01:39:10;2.73;;;2.30;;
20000;SDS011;10161;41.188;-8.642;2023-05-19T01:41:37;3.63;;;2.13;;
20000;SDS011;10161;41.188;-8.642;2023-05-19T01:44:06;4.67;;;2.47;;
20000;SDS011;10161;41.188;-8.642;2023-05-19T01:46:34;2.77;;;2.30;;
20000;SDS011;10161;41.188;-8.642;2023-05-19T01:49:02;4.30;;;2.80;;
20000;SDS011;10161;41.188;-8.642;2023-05-19T01:51:30;3.13;;;2.37;;
20000;SDS011;10161;41.188;-8.642;2023-05-19T01:53:57;4.77;;;2.27;;
20000;SDS011;10161;41.188;-8.642;2023-05-19T01:56:26;3.00;;;2.20;;
20000;SDS011;10161;41.188;-8.642;2023-05-19T01:58:58;7.93;;;2.40;;
20000;SDS011;10161;41.188;-8.642;2023-05-19T02:01:30;2.00;;;1.77;;
20000;SDS011;10161;41.188;-8.642;2023-05-19T02:04:07;3.90;;;2.90;;
20000;SDS011;10161;41.188;-8.642;2023-05-19T02:06:41;3.03;;;2.00;;
20000;SDS011;10161;41.188;-8.642;2023-05-19T02:09:11;5.10;;;2.43;;
20000;SDS011;10161;41.188;-8.642;2023-05-19T02:11:39;4.50;;;2.40;;
20000;SDS011;10161;41.188;-8.642;2023-05-19T02:14:11;3.43;;;2.60;;
20000;SDS011;10161;41.188;-8.642;2023-05-19T02:16:40;2.40;;;2.20;;
20000;SDS011;10161;41.188;-8.642;2023-05-19T02:19:20;3.53;;;2.40;;
20000;SDS011;10161;41.188;-8.642;2023-05-19T02:21:47;4.00;;;2.40;;
20000;SDS011;10161;41.188;-8.642;2023-05-19T02:24:15;3.97;;;2.20;;
20000;SDS011;10161;41.188;-8.642;2023-05-19T02:26:42;3.30;;;2.53;;
20000;SDS011;10161;41.188;-8.642;2023-05-19T02:29:09;3.80;;;2.67;;
20000;SDS011;10161;41.188;-8.642;2023-05-19T02:31:37;2.37;;;2.17;;
20000;SDS011;10161;41.188;-8.642;2023-05-19T02:34:04;5.10;;;2.43;;
20000;SDS011;10161;41.188;-8.642;2023-05-19T02:36:34;2.47;;;2.20;;
20000;SDS011;10161;41.188;-8.642;2023-05-19T02:39:01;2.60;;;2.40;;
20000;SDS011;10161;41.188;-8.642;2023-05-19T02:41:30;4.30;;;2.57;;
20000;SDS011;10161;41.188;-8.642;2023-05-19T02:43:57;2.93;;;2.53;;
20000;SDS011;10161;41.188;-8.642;2023-05-19T02:46:24;4.33;;;2.50;;
20000;SDS011;10161;41.188;-8.642;2023-05-19T02:48:52;4.07;;;2.70;;
20000;SDS011;10161;41.188;-8.642;2023-05-19T02:51:19;3.53;;;2.60;;
20000;SDS011;10161;41.188;-8.642;2023-05-19T02:53:49;2.53;;;2.33;;
20000;SDS011;10161;41.188;-8.642;2023-05-19T02:56:17;2.70;;;2.50;;
20000;SDS011;10161;41.188;-8.642;2023-05-19T02:58:44;3.33;;;2.60;;
20000;SDS011;10161;41.188;-8.642;2023-05-19T03:01:10;4.90;;;3.00;;
20000;SDS011;10161;41.188;-8.642;2023-05-19T03:03:37;3.40;;;2.20;;
20000;SDS011;10161;41.188;-8.642;2023-05-19T03:06:05;4.20;;;2.67;;
20000;SDS011;10161;41.188;-8.642;2023-05-19T03:08:33;2.80;;;2.33;;
20000;SDS011;10161;41.188;-8.642;2023-05-19T03:11:02;2.70;;;2.50;;
20000;SDS011;10161;41.188;-8.642;2023-05-19T03:13:29;2.63;;;2.03;;
20000;SDS011;10161;41.188;-8.642;2023-05-19T03:15:57;3.87;;;2.60;;
20000;SDS011;10161;41.188;-8.642;2023-05-19T03:18:24;3.70;;;2.40;;
20000;SDS011;10161;41.188;-8.642;2023-05-19T03:20:51;5.57;;;2.70;;
20000;SDS011;10161;41.188;-8.642;2023-05-19T03:23:19;3.47;;;2.50;;
20000;SDS011;10161;41.188;-8.642;2023-05-19T03:25:47;3.90;;;2.70;;
20000;SDS011;10161;41.188;-8.642;2023-05-19T03:28:16;3.20;;;2.70;;
20000;SDS011;10161;41.188;-8.642;2023-05-19T03:30:43;3.73;;;2.90;;
20000;SDS011;10161;41.188;-8.642;2023-05-19T03:33:10;3.93;;;3.20;;
20000;SDS011;10161;41.188;-8.642;2023-05-19T03:35:37;3.70;;;3.33;;
20000;SDS011;10161;41.188;-8.642;2023-05-19T03:38:05;3.40;;;3.10;;
20000;SDS011;10161;41.188;-8.642;2023-05-19T03:40:32;2.97;;;2.70;;
20000;SDS011;10161;41.188;-8.642;2023-05-19T03:42:59;4.10;;;2.80;;
20000;SDS011;10161;41.188;-8.642;2023-05-19T03:45:28;3.27;;;2.70;;
20000;SDS011;10161;41.188;-8.642;2023-05-19T03:47:55;3.30;;;3.00;;
20000;SDS011;10161;41.188;-8.642;2023-05-19T03:50:22;3.90;;;3.17;;
20000;SDS011;10161;41.188;-8.642;2023-05-19T03:52:53;5.83;;;3.30;;
20000;SDS011;10161;41.188;-8.642;2023-05-19T03:55:20;4.00;;;3.10;;
20000;SDS011;10161;41.188;-8.642;2023-05-19T03:57:46;5.33;;;2.80;;
20000;SDS011;10161;41.188;-8.642;2023-05-19T04:00:14;2.97;;;2.67;;
20000;SDS011;10161;41.188;-8.642;2023-05-19T04:02:43;4.47;;;2.70;;
20000;SDS011;10161;41.188;-8.642;2023-05-19T04:05:11;2.97;;;2.40;;
20000;SDS011;10161;41.188;-8.642;2023-05-19T04:07:38;5.50;;;2.53;;
20000;SDS011;10161;41.188;-8.642;2023-05-19T04:10:05;2.57;;;2.00;;
20000;SDS011;10161;41.188;-8.642;2023-05-19T04:12:33;3.33;;;2.27;;
20000;SDS011;10161;41.188;-8.642;2023-05-19T04:15:00;2.77;;;2.23;;
20000;SDS011;10161;41.188;-8.642;2023-05-19T04:17:27;3.50;;;2.43;;
20000;SDS011;10161;41.188;-8.642;2023-05-19T04:19:55;2.73;;;2.30;;
20000;SDS011;10161;41.188;-8.642;2023-05-19T04:22:23;2.80;;;2.37;;
20000;SDS011;10161;41.188;-8.642;2023-05-19T04:24:50;4.50;;;2.37;;
20000;SDS011;10161;41.188;-8.642;2023-05-19T04:27:18;2.10;;;1.90;;
20000;SDS011;10161;41.188;-8.642;2023-05-19T04:29:47;4.27;;;2.30;;
20000;SDS011;10161;41.188;-8.642;2023-05-19T04:32:14;5.30;;;2.33;;
20000;SDS011;10161;41.188;-8.642;2023-05-19T04:34:42;2.97;;;2.20;;
20000;SDS011;10161;41.188;-8.642;2023-05-19T04:37:12;5.53;;;2.30;;
20000;SDS011;10161;41.188;-8.642;2023-05-19T04:39:40;2.30;;;2.10;;
20000;SDS011;10161;41.188;-8.642;2023-05-19T04:42:09;2.90;;;2.17;;
20000;SDS011;10161;41.188;-8.642;2023-05-19T04:44:37;3.93;;;2.10;;
20000;SDS011;10161;41.188;-8.642;2023-05-19T04:47:05;2.90;;;2.20;;
20000;SDS011;10161;41.188;-8.642;2023-05-19T04:49:33;2.60;;;2.27;;
20000;SDS011;10161;41.188;-8.642;2023-05-19T04:52:04;5.43;;;2.37;;
20000;SDS011;10161;41.188;-8.642;2023-05-19T04:54:34;3.47;;;2.57;;
20000;SDS011;10161;41.188;-8.642;2023-05-19T04:57:03;2.33;;;2.13;;
20000;SDS011;10161;41.188;-8.642;2023-05-19T04:59:30;3.90;;;2.10;;
20000;SDS011;10161;41.188;-8.642;2023-05-19T05:01:57;2.67;;;2.40;;
20000;SDS011;10161;41.188;-8.642;2023-05-19T05:04:24;2.80;;;2.30;;
20000;SDS011;10161;41.188;-8.642;2023-05-19T05:06:51;2.90;;;2.60;;
20000;SDS011;10161;41.188;-8.642;2023-05-19T05:09:18;2.70;;;2.27;;
20000;SDS011;10161;41.188;-8.642;2023-05-19T05:11:47;2.40;;;2.10;;
20000;SDS011;10161;41.188;-8.642;2023-05-19T05:14:15;2.93;;;2.10;;
20000;SDS011;10161;41.188;-8.642;2023-05-19T05:16:43;4.07;;;2.13;;
20000;SDS011;10161;41.188;-8.642;2023-05-19T05:19:11;3.77;;;2.27;;
20000;SDS011;10161;41.188;-8.642;2023-05-19T05:21:38;3.80;;;2.60;;
20000;SDS011;10161;41.188;-8.642;2023-05-19T05:24:07;3.47;;;2.50;;
20000;SDS011;10161;41.188;-8.642;2023-05-19T05:26:36;3.70;;;2.30;;
20000;SDS011;10161;41.188;-8.642;2023-05-19T05:29:06;3.87;;;2.30;;
20000;SDS011;10161;41.188;-8.642;2023-05-19T05:31:34;2.30;;;2.10;;
20000;SDS011;10161;41.188;-8.642;2023-05-19T05:34:01;2.77;;;2.27;;
20000;SDS011;10161;41.188;-8.642;2023-05-19T05:36:28;2.47;;;2.10;;
20000;SDS011;10161;41.188;-8.642;2023-05-19T05:38:56;5.27;;;3.10;;
20000;SDS011;10161;41.188;-8.642;2023-05-19T05:41:23;2.73;;;2.37;;
20000;SDS011;10161;41.188;-8.642;2023-05-19T05:43:51;3.00;;;2.20;;
20000;SDS011;10161;41.188;-8.642;2023-05-19T05:46:20;3.63;;;2.70;;
20000;SDS011;10161;41.188;-8.642;2023-05-19T05:48:47;3.90;;;3.00;;
20000;SDS011;10161;41.188;-8.642;2023-05-19T05:51:14;5.03;;;3.97;;
20000;SDS011;10161;41.188;-8.642;2023-05-19T05:53:42;4.03;;;3.37;;
20000;SDS011;10161;41.188;-8.642;2023-05-19T05:56:11;3.23;;;2.90;;
20000;SDS011;10161;41.188;-8.642;2023-05-19T05:58:38;5.47;;;3.60;;
20000;SDS011;10161;41.188;-8.642;2023-05-19T06:01:05;4.50;;;3.60;;
20000;SDS011;10161;41.188;-8.642;2023-05-19T06:03:40;6.30;;;3.77;;
20000;SDS011;10161;41.188;-8.642;2023-05-19T06:06:08;5.00;;;3.43;;
20000;SDS011;10161;41.188;-8.642;2023-05-19T06:08:36;5.57;;;3.40;;
20000;SDS011;10161;41.188;-8.642;2023-05-19T06:11:05;4.43;;;3.13;;
20000;SDS011;10161;41.188;-8.642;2023-05-19T06:13:34;3.77;;;2.67;;
20000;SDS011;10161;41.188;-8.642;2023-05-19T06:16:02;3.20;;;2.40;;
20000;SDS011;10161;41.188;-8.642;2023-05-19T06:18:29;3.10;;;2.80;;
20000;SDS011;10161;41.188;-8.642;2023-05-19T06:20:58;3.63;;;3.07;;
20000;SDS011;10161;41.188;-8.642;2023-05-19T06:23:25;6.00;;;3.20;;
20000;SDS011;10161;41.188;-8.642;2023-05-19T06:25:54;6.60;;;3.53;;
20000;SDS011;10161;41.188;-8.642;2023-05-19T06:28:21;4.03;;;3.20;;
20000;SDS011;10161;41.188;-8.642;2023-05-19T06:30:48;3.83;;;3.43;;
20000;SDS011;10161;41.188;-8.642;2023-05-19T06:33:15;4.67;;;3.50;;
20000;SDS011;10161;41.188;-8.642;2023-05-19T06:35:43;4.63;;;3.70;;
20000;SDS011;10161;41.188;-8.642;2023-05-19T06:38:11;6.97;;;3.70;;
20000;SDS011;10161;41.188;-8.642;2023-05-19T06:40:39;6.77;;;4.03;;
20000;SDS011;10161;41.188;-8.642;2023-05-19T06:43:06;4.70;;;3.53;;
20000;SDS011;10161;41.188;-8.642;2023-05-19T06:45:33;6.77;;;3.33;;
20000;SDS011;10161;41.188;-8.642;2023-05-19T06:48:00;4.00;;;3.07;;
20000;SDS011;10161;41.188;-8.642;2023-05-19T06:50:28;6.77;;;4.03;;
20000;SDS011;10161;41.188;-8.642;2023-05-19T06:52:55;4.43;;;3.43;;
20000;SDS011;10161;41.188;-8.642;2023-05-19T06:55:24;3.87;;;2.90;;
20000;SDS011;10161;41.188;-8.642;2023-05-19T06:57:51;4.50;;;2.70;;
20000;SDS011;10161;41.188;-8.642;2023-05-19T07:00:19;4.83;;;3.50;;
20000;SDS011;10161;41.188;-8.642;2023-05-19T07:02:46;5.30;;;2.73;;
20000;SDS011;10161;41.188;-8.642;2023-05-19T07:05:13;4.67;;;3.13;;
20000;SDS011;10161;41.188;-8.642;2023-05-19T07:07:40;8.70;;;3.23;;
20000;SDS011;10161;41.188;-8.642;2023-05-19T07:10:08;4.20;;;3.10;;
20000;SDS011;10161;41.188;-8.642;2023-05-19T07:12:37;4.13;;;3.33;;
20000;SDS011;10161;41.188;-8.642;2023-05-19T07:15:05;2.97;;;2.67;;
20000;SDS011;10161;41.188;-8.642;2023-05-19T07:17:32;4.93;;;3.40;;
20000;SDS011;10161;41.188;-8.642;2023-05-19T07:20:00;3.13;;;2.80;;
20000;SDS011;10161;41.188;-8.642;2023-05-19T07:22:30;3.77;;;3.07;;
20000;SDS011;10161;41.188;-8.642;2023-05-19T07:24:59;5.43;;;2.83;;
20000;SDS011;10161;41.188;-8.642;2023-05-19T07:27:26;8.77;;;3.40;;
20000;SDS011;10161;41.188;-8.642;2023-05-19T07:29:55;4.87;;;2.87;;
20000;SDS011;10161;41.188;-8.642;2023-05-19T07:32:22;7.90;;;3.00;;
20000;SDS011;10161;41.188;-8.642;2023-05-19T07:34:49;4.70;;;3.13;;
20000;SDS011;10161;41.188;-8.642;2023-05-19T07:37:16;7.03;;;3.07;;
20000;SDS011;10161;41.188;-8.642;2023-05-19T07:39:43;3.00;;;2.37;;
20000;SDS011;10161;41.188;-8.642;2023-05-19T07:42:10;4.67;;;3.20;;
20000;SDS011;10161;41.188;-8.642;2023-05-19T07:44:37;3.53;;;2.30;;
20000;SDS011;10161;41.188;-8.642;2023-05-19T07:47:07;4.63;;;2.77;;
20000;SDS011;10161;41.188;-8.642;2023-05-19T07:49:34;4.13;;;3.03;;
20000;SDS011;10161;41.188;-8.642;2023-05-19T07:52:01;4.33;;;3.17;;
20000;SDS011;10161;41.188;-8.642;2023-05-19T07:54:28;3.10;;;2.60;;
20000;SDS011;10161;41.188;-8.642;2023-05-19T07:56:56;4.90;;;3.17;;
20000;SDS011;10161;41.188;-8.642;2023-05-19T07:59:23;5.83;;;3.20;;
20000;SDS011;10161;41.188;-8.642;2023-05-19T08:01:51;3.90;;;2.73;;
20000;SDS011;10161;41.188;-8.642;2023-05-19T08:04:19;4.50;;;3.50;;
20000;SDS011;10161;41.188;-8.642;2023-05-19T08:06:46;3.97;;;3.00;;
20000;SDS011;10161;41.188;-8.642;2023-05-19T08:09:16;4.30;;;3.50;;
20000;SDS011;10161;41.188;-8.642;2023-05-19T08:11:43;4.30;;;3.40;;
20000;SDS011;10161;41.188;-8.642;2023-05-19T08:14:11;6.80;;;3.50;;
20000;SDS011;10161;41.188;-8.642;2023-05-19T08:16:38;3.20;;;2.90;;
20000;SDS011;10161;41.188;-8.642;2023-05-19T08:19:08;3.80;;;2.90;;
20000;SDS011;10161;41.188;-8.642;2023-05-19T08:21:38;4.50;;;3.00;;
20000;SDS011;10161;41.188;-8.642;2023-05-19T08:24:06;3.73;;;2.93;;
20000;SDS011;10161;41.188;-8.642;2023-05-19T08:26:36;6.90;;;3.50;;
20000;SDS011;10161;41.188;-8.642;2023-05-19T08:29:04;4.70;;;3.13;;
20000;SDS011;10161;41.188;-8.642;2023-05-19T08:31:32;4.27;;;2.60;;
20000;SDS011;10161;41.188;-8.642;2023-05-19T08:34:01;6.63;;;3.70;;
20000;SDS011;10161;41.188;-8.642;2023-05-19T08:36:28;4.57;;;3.20;;
20000;SDS011;10161;41.188;-8.642;2023-05-19T08:38:57;5.50;;;3.33;;
20000;SDS011;10161;41.188;-8.642;2023-05-19T08:41:23;5.20;;;3.93;;
20000;SDS011;10161;41.188;-8.642;2023-05-19T08:43:51;5.87;;;3.37;;
20000;SDS011;10161;41.188;-8.642;2023-05-19T08:46:18;3.53;;;3.13;;
20000;SDS011;10161;41.188;-8.642;2023-05-19T08:48:49;4.20;;;2.90;;
20000;SDS011;10161;41.188;-8.642;2023-05-19T08:51:22;6.43;;;3.23;;
20000;SDS011;10161;41.188;-8.642;2023-05-19T08:53:55;4.67;;;3.30;;
20000;SDS011;10161;41.188;-8.642;2023-05-19T08:56:26;8.40;;;3.43;;
20000;SDS011;10161;41.188;-8.642;2023-05-19T08:58:54;4.40;;;3.47;;
20000;SDS011;10161;41.188;-8.642;2023-05-19T09:01:24;4.50;;;3.20;;
20000;SDS011;10161;41.188;-8.642;2023-05-19T09:03:54;4.60;;;2.93;;
20000;SDS011;10161;41.188;-8.642;2023-05-19T09:06:21;6.37;;;3.30;;
20000;SDS011;10161;41.188;-8.642;2023-05-19T09:08:49;4.23;;;3.10;;
20000;SDS011;10161;41.188;-8.642;2023-05-19T09:11:18;5.53;;;3.70;;
20000;SDS011;10161;41.188;-8.642;2023-05-19T09:13:46;4.03;;;2.93;;
20000;SDS011;10161;41.188;-8.642;2023-05-19T09:16:14;6.87;;;3.50;;
20000;SDS011;10161;41.188;-8.642;2023-05-19T09:18:50;3.70;;;3.30;;
20000;SDS011;10161;41.188;-8.642;2023-05-19T09:21:19;4.67;;;3.00;;
20000;SDS011;10161;41.188;-8.642;2023-05-19T09:23:48;4.03;;;3.40;;
20000;SDS011;10161;41.188;-8.642;2023-05-19T09:26:15;3.43;;;2.80;;
20000;SDS011;10161;41.188;-8.642;2023-05-19T09:28:44;5.33;;;3.33;;
20000;SDS011;10161;41.188;-8.642;2023-05-19T09:31:12;4.83;;;3.60;;
20000;SDS011;10161;41.188;-8.642;2023-05-19T09:33:39;4.53;;;3.20;;
20000;SDS011;10161;41.188;-8.642;2023-05-19T09:36:08;4.10;;;3.47;;
20000;SDS011;10161;41.188;-8.642;2023-05-19T09:38:37;3.83;;;3.40;;
20000;SDS011;10161;41.188;-8.642;2023-05-19T09:41:06;5.07;;;3.70;;
20000;SDS011;10161;41.188;-8.642;2023-05-19T09:43:34;5.77;;;4.10;;
20000;SDS011;10161;41.188;-8.642;2023-05-19T09:46:06;4.80;;;3.70;;
20000;SDS011;10161;41.188;-8.642;2023-05-19T09:48:35;4.63;;;3.30;;
20000;SDS011;10161;41.188;-8.642;2023-05-19T09:51:02;5.07;;;3.03;;
20000;SDS011;10161;41.188;-8.642;2023-05-19T09:53:30;5.50;;;3.73;;
20000;SDS011;10161;41.188;-8.642;2023-05-19T09:55:59;5.30;;;3.80;;
20000;SDS011;10161;41.188;-8.642;2023-05-19T09:58:29;5.80;;;3.63;;
20000;SDS011;10161;41.188;-8.642;2023-05-19T10:01:00;4.17;;;3.30;;
20000;SDS011;10161;41.188;-8.642;2023-05-19T10:03:28;3.70;;;3.30;;
20000;SDS011;10161;41.188;-8.642;2023-05-19T10:05:57;5.37;;;3.47;;
20000;SDS011;10161;41.188;-8.642;2023-05-19T10:08:25;7.23;;;3.30;;
20000;SDS011;10161;41.188;-8.642;2023-05-19T10:10:54;5.20;;;3.77;;
20000;SDS011;10161;41.188;-8.642;2023-05-19T10:13:21;4.30;;;3.90;;
20000;SDS011;10161;41.188;-8.642;2023-05-19T10:15:50;5.63;;;3.63;;
20000;SDS011;10161;41.188;-8.642;2023-05-19T10:18:18;4.97;;;3.60;;
20000;SDS011;10161;41.188;-8.642;2023-05-19T10:20:46;6.90;;;4.03;;
20000;SDS011;10161;41.188;-8.642;2023-05-19T10:23:14;3.63;;;3.00;;
20000;SDS011;10161;41.188;-8.642;2023-05-19T10:25:41;4.10;;;3.33;;
20000;SDS011;10161;41.188;-8.642;2023-05-19T10:28:10;5.27;;;3.53;;
20000;SDS011;10161;41.188;-8.642;2023-05-19T10:30:40;3.77;;;3.43;;
20000;SDS011;10161;41.188;-8.642;2023-05-19T10:33:09;4.17;;;3.40;;
20000;SDS011;10161;41.188;-8.642;2023-05-19T10:35:41;4.80;;;3.50;;
20000;SDS011;10161;41.188;-8.642;2023-05-19T10:38:36;4.13;;;3.47;;
20000;SDS011;10161;41.188;-8.642;2023-05-19T10:41:09;5.33;;;3.60;;
20000;SDS011;10161;41.188;-8.642;2023-05-19T10:43:48;4.37;;;3.07;;
20000;SDS011;10161;41.188;-8.642;2023-05-19T10:46:22;4.37;;;3.13;;
20000;SDS011;10161;41.188;-8.642;2023-05-19T10:48:51;6.43;;;3.63;;
20000;SDS011;10161;41.188;-8.642;2023-05-19T10:51:18;4.33;;;3.50;;
20000;SDS011;10161;41.188;-8.642;2023-05-19T10:53:48;3.93;;;3.17;;
20000;SDS011;10161;41.188;-8.642;2023-05-19T10:56:27;4.50;;;3.73;;
20000;SDS011;10161;41.188;-8.642;2023-05-19T10:58:56;4.87;;;3.53;;
20000;SDS011;10161;41.188;-8.642;2023-05-19T11:01:28;5.20;;;3.93;;
20000;SDS011;10161;41.188;-8.642;2023-05-19T11:04:03;4.53;;;3.90;;
20000;SDS011;10161;41.188;-8.642;2023-05-19T11:06:31;4.53;;;3.17;;
20000;SDS011;10161;41.188;-8.642;2023-05-19T11:09:12;3.90;;;3.40;;
20000;SDS011;10161;41.188;-8.642;2023-05-19T11:11:43;4.30;;;3.70;;
20000;SDS011;10161;41.188;-8.642;2023-05-19T11:14:14;6.97;;;3.77;;
20000;SDS011;10161;41.188;-8.642;2023-05-19T11:16:44;4.67;;;4.03;;
20000;SDS011;10161;41.188;-8.642;2023-05-19T11:19:17;4.90;;;3.80;;
20000;SDS011;10161;41.188;-8.642;2023-05-19T11:21:48;4.60;;;3.27;;
20000;SDS011;10161;41.188;-8.642;2023-05-19T11:24:33;5.10;;;3.47;;
20000;SDS011;10161;41.188;-8.642;2023-05-19T11:29:51;6.03;;;3.40;;
20000;SDS011;10161;41.188;-8.642;2023-05-19T11:32:20;6.57;;;3.47;;
20000;SDS011;10161;41.188;-8.642;2023-05-19T11:34:47;4.40;;;3.50;;
20000;SDS011;10161;41.188;-8.642;2023-05-19T11:37:15;4.90;;;3.70;;
20000;SDS011;10161;41.188;-8.642;2023-05-19T11:39:45;4.90;;;3.30;;
20000;SDS011;10161;41.188;-8.642;2023-05-19T11:42:13;4.20;;;3.70;;
20000;SDS011;10161;41.188;-8.642;2023-05-19T11:44:41;5.87;;;3.87;;
20000;SDS011;10161;41.188;-8.642;2023-05-19T11:47:10;5.10;;;3.70;;
20000;SDS011;10161;41.188;-8.642;2023-05-19T11:49:37;4.10;;;3.40;;
20000;SDS011;10161;41.188;-8.642;2023-05-19T11:52:04;4.03;;;3.43;;
20000;SDS011;10161;41.188;-8.642;2023-05-19T11:54:32;4.43;;;3.53;;
20000;SDS011;10161;41.188;-8.642;2023-05-19T11:57:02;7.10;;;4.00;;
20000;SDS011;10161;41.188;-8.642;2023-05-19T11:59:30;5.30;;;3.63;;
20000;SDS011;10161;41.188;-8.642;2023-05-19T12:02:14;4.70;;;4.20;;
20000;SDS011;10161;41.188;-8.642;2023-05-19T12:04:42;5.07;;;4.57;;
20000;SDS011;10161;41.188;-8.642;2023-05-19T12:07:09;6.83;;;4.20;;
20000;SDS011;10161;41.188;-8.642;2023-05-19T12:09:37;5.23;;;3.60;;
20000;SDS011;10161;41.188;-8.642;2023-05-19T12:12:06;6.47;;;4.03;;
20000;SDS011;10161;41.188;-8.642;2023-05-19T12:14:33;6.80;;;3.90;;
20000;SDS011;10161;41.188;-8.642;2023-05-19T12:17:08;4.13;;;3.60;;
20000;SDS011;10161;41.188;-8.642;2023-05-19T12:19:38;5.07;;;3.73;;
20000;SDS011;10161;41.188;-8.642;2023-05-19T12:22:06;3.70;;;3.20;;
20000;SDS011;10161;41.188;-8.642;2023-05-19T12:24:33;5.03;;;4.30;;
20000;SDS011;10161;41.188;-8.642;2023-05-19T12:27:08;4.93;;;3.97;;
20000;SDS011;10161;41.188;-8.642;2023-05-19T12:29:37;4.23;;;3.53;;
20000;SDS011;10161;41.188;-8.642;2023-05-19T12:32:05;4.07;;;3.67;;
20000;SDS011;10161;41.188;-8.642;2023-05-19T12:34:34;4.30;;;3.77;;
20000;SDS011;10161;41.188;-8.642;2023-05-19T12:37:02;4.50;;;3.37;;
20000;SDS011;10161;41.188;-8.642;2023-05-19T12:39:29;5.07;;;3.30;;
20000;SDS011;10161;41.188;-8.642;2023-05-19T12:42:00;4.80;;;3.50;;
20000;SDS011;10161;41.188;-8.642;2023-05-19T12:44:29;4.20;;;3.63;;
20000;SDS011;10161;41.188;-8.642;2023-05-19T12:46:56;4.07;;;3.67;;
20000;SDS011;10161;41.188;-8.642;2023-05-19T12:49:25;6.50;;;3.83;;
20000;SDS011;10161;41.188;-8.642;2023-05-19T12:51:53;5.63;;;3.67;;
20000;SDS011;10161;41.188;-8.642;2023-05-19T12:54:20;4.07;;;3.63;;
20000;SDS011;10161;41.188;-8.642;2023-05-19T12:56:48;4.07;;;3.50;;
20000;SDS011;10161;41.188;-8.642;2023-05-19T12:59:20;8.50;;;3.70;;
20000;SDS011;10161;41.188;-8.642;2023-05-19T13:01:56;4.13;;;3.40;;
20000;SDS011;10161;41.188;-8.642;2023-05-19T13:04:23;5.67;;;3.43;;
20000;SDS011;10161;41.188;-8.642;2023-05-19T13:06:51;3.83;;;3.37;;
20000;SDS011;10161;41.188;-8.642;2023-05-19T13:09:18;7.23;;;4.00;;
20000;SDS011;10161;41.188;-8.642;2023-05-19T13:11:47;5.00;;;3.33;;
20000;SDS011;10161;41.188;-8.642;2023-05-19T13:14:17;3.70;;;3.37;;
20000;SDS011;10161;41.188;-8.642;2023-05-19T13:16:44;3.83;;;3.43;;
20000;SDS011;10161;41.188;-8.642;2023-05-19T13:19:16;4.67;;;3.90;;
20000;SDS011;10161;41.188;-8.642;2023-05-19T13:21:43;5.53;;;4.40;;
20000;SDS011;10161;41.188;-8.642;2023-05-19T13:24:11;5.20;;;3.80;;
20000;SDS011;10161;41.188;-8.642;2023-05-19T13:26:39;5.67;;;3.70;;
20000;SDS011;10161;41.188;-8.642;2023-05-19T13:29:06;6.30;;;4.03;;
20000;SDS011;10161;41.188;-8.642;2023-05-19T13:31:35;5.30;;;3.50;;
20000;SDS011;10161;41.188;-8.642;2023-05-19T13:34:02;5.20;;;3.53;;
20000;SDS011;10161;41.188;-8.642;2023-05-19T13:36:31;4.00;;;3.60;;
20000;SDS011;10161;41.188;-8.642;2023-05-19T13:38:59;5.20;;;3.50;;
20000;SDS011;10161;41.188;-8.642;2023-05-19T13:41:26;5.40;;;3.90;;
20000;SDS011;10161;41.188;-8.642;2023-05-19T13:43:54;4.77;;;4.00;;
20000;SDS011;10161;41.188;-8.642;2023-05-19T13:46:22;4.23;;;3.83;;
20000;SDS011;10161;41.188;-8.642;2023-05-19T13:48:50;6.30;;;3.60;;
20000;SDS011;10161;41.188;-8.642;2023-05-19T13:51:17;4.90;;;3.73;;
20000;SDS011;10161;41.188;-8.642;2023-05-19T13:53:46;5.10;;;4.10;;
20000;SDS011;10161;41.188;-8.642;2023-05-19T13:56:13;5.90;;;3.70;;
20000;SDS011;10161;41.188;-8.642;2023-05-19T13:58:41;6.00;;;3.50;;
20000;SDS011;10161;41.188;-8.642;2023-05-19T14:01:08;5.03;;;3.80;;
20000;SDS011;10161;41.188;-8.642;2023-05-19T14:03:35;4.50;;;3.33;;
20000;SDS011;10161;41.188;-8.642;2023-05-19T14:06:02;5.60;;;3.57;;
20000;SDS011;10161;41.188;-8.642;2023-05-19T14:08:31;4.57;;;4.13;;
20000;SDS011;10161;41.188;-8.642;2023-05-19T14:11:01;9.90;;;5.20;;
20000;SDS011;10161;41.188;-8.642;2023-05-19T14:13:28;7.40;;;4.67;;
20000;SDS011;10161;41.188;-8.642;2023-05-19T14:15:55;8.10;;;4.67;;
20000;SDS011;10161;41.188;-8.642;2023-05-19T14:18:22;6.23;;;3.90;;
20000;SDS011;10161;41.188;-8.642;2023-05-19T14:20:50;7.93;;;4.67;;
20000;SDS011;10161;41.188;-8.642;2023-05-19T14:23:17;8.70;;;4.73;;
20000;SDS011;10161;41.188;-8.642;2023-05-19T14:25:45;5.93;;;4.70;;
20000;SDS011;10161;41.188;-8.642;2023-05-19T14:28:14;7.30;;;5.27;;
20000;SDS011;10161;41.188;-8.642;2023-05-19T14:30:41;9.33;;;4.80;;
20000;SDS011;10161;41.188;-8.642;2023-05-19T14:33:08;8.50;;;5.20;;
20000;SDS011;10161;41.188;-8.642;2023-05-19T14:35:36;8.43;;;4.80;;
20000;SDS011;10161;41.188;-8.642;2023-05-19T14:38:02;7.20;;;4.90;;
20000;SDS011;10161;41.188;-8.642;2023-05-19T14:40:30;8.07;;;4.83;;
20000;SDS011;10161;41.188;-8.642;2023-05-19T14:42:58;12.10;;;5.40;;
20000;SDS011;10161;41.188;-8.642;2023-05-19T14:45:27;8.17;;;4.97;;
20000;SDS011;10161;41.188;-8.642;2023-05-19T14:47:54;6.60;;;4.50;;